createdAt,value
2022-09-02T00:00:22.755Z,57.04
2022-09-02T00:00:58.237Z,57.04
2022-09-02T00:01:33.534Z,57.04
2022-09-02T00:02:08.902Z,57.04
2022-09-02T00:02:43.923Z,56.76
2022-09-02T00:03:18.969Z,56.86
2022-09-02T00:03:54.173Z,56.84
2022-09-02T00:04:29.396Z,56.84
2022-09-02T00:05:04.683Z,56.96
2022-09-02T00:05:39.890Z,56.84
2022-09-02T00:06:14.976Z,56.33
2022-09-02T00:06:50.484Z,56.66
2022-09-02T00:07:25.667Z,56.73
2022-09-02T00:08:01.175Z,56.84
2022-09-02T00:08:36.207Z,56.86
2022-09-02T00:09:11.399Z,56.84
2022-09-02T00:09:46.590Z,56.63
2022-09-02T00:10:21.627Z,56.96
2022-09-02T00:10:56.711Z,57.04
2022-09-02T00:11:31.963Z,56.56
2022-09-02T00:12:07.240Z,56.76
2022-09-02T00:12:42.454Z,56.86
2022-09-02T00:13:17.682Z,56.84
2022-09-02T00:13:53.153Z,56.76
2022-09-02T00:14:28.356Z,56.96
2022-09-02T00:15:03.501Z,57.17
2022-09-02T00:15:38.994Z,56.66
2022-09-02T00:16:14.404Z,56.56
2022-09-02T00:16:49.532Z,56.56
2022-09-02T00:17:24.777Z,56.76
2022-09-02T00:17:59.843Z,56.86
2022-09-02T00:18:35.069Z,56.76
2022-09-02T00:19:10.664Z,57.78
2022-09-02T00:19:45.784Z,57.17
2022-09-02T00:20:20.969Z,56.56
2022-09-02T00:20:56.203Z,56.76
2022-09-02T00:21:31.394Z,56.94
2022-09-02T00:22:06.798Z,56.76
2022-09-02T00:22:41.792Z,57.17
2022-09-02T00:23:17.136Z,56.96
2022-09-02T00:23:52.321Z,56.86
2022-09-02T00:24:27.472Z,56.66
2022-09-02T00:25:02.959Z,56.66
2022-09-02T00:25:38.184Z,56.96
2022-09-02T00:26:13.630Z,56.76
2022-09-02T00:26:48.873Z,56.96
2022-09-02T00:27:24.166Z,56.86
2022-09-02T00:27:59.374Z,57.37
2022-09-02T00:28:34.578Z,56.56
2022-09-02T00:29:10.100Z,56.96
2022-09-02T00:29:45.383Z,56.86
2022-09-02T00:30:20.409Z,56.86
2022-09-02T00:30:55.428Z,56.86
2022-09-02T00:31:30.808Z,56.96
2022-09-02T00:32:05.991Z,56.76
2022-09-02T00:32:41.549Z,56.86
2022-09-02T00:33:16.653Z,56.66
2022-09-02T00:33:51.873Z,56.76
2022-09-02T00:34:27.062Z,56.96
2022-09-02T00:35:02.200Z,56.66
2022-09-02T00:35:37.215Z,56.96
2022-09-02T00:36:15.641Z,56.96
2022-09-02T00:36:51.050Z,56.86
2022-09-02T00:37:26.265Z,56.56
2022-09-02T00:38:01.667Z,56.96
2022-09-02T00:38:36.773Z,56.86
2022-09-02T00:39:12.072Z,56.66
2022-09-02T00:39:47.315Z,57.17
2022-09-02T00:40:22.635Z,56.76
2022-09-02T00:40:57.950Z,56.96
2022-09-02T00:41:33.242Z,57.07
2022-09-02T00:42:08.649Z,57.17
2022-09-02T00:42:43.657Z,57.07
2022-09-02T00:43:19.024Z,57.07
2022-09-02T00:43:54.440Z,57.07
2022-09-02T00:44:29.964Z,57.17
2022-09-02T00:45:05.353Z,56.86
2022-09-02T00:45:40.535Z,56.79
2022-09-02T00:46:15.753Z,57.27
2022-09-02T00:46:50.822Z,56.56
2022-09-02T00:47:26.210Z,56.56
2022-09-02T00:48:01.438Z,56.76
2022-09-02T00:48:36.590Z,56.86
2022-09-02T00:49:11.916Z,56.89
2022-09-02T00:49:47.047Z,56.96
2022-09-02T00:50:22.595Z,57.80
2022-09-02T00:50:58.237Z,56.96
2022-09-02T00:51:33.652Z,57.17
2022-09-02T00:52:08.676Z,57.17
2022-09-02T00:52:44.023Z,57.47
2022-09-02T00:53:19.281Z,57.27
2022-09-02T00:53:54.553Z,57.07
2022-09-02T00:54:29.667Z,57.17
2022-09-02T00:55:05.101Z,57.17
2022-09-02T00:55:40.190Z,57.78
2022-09-02T00:56:15.514Z,57.98
2022-09-02T00:56:50.725Z,57.47
2022-09-02T00:57:25.960Z,57.47
2022-09-02T00:58:01.264Z,57.37
2022-09-02T00:58:36.486Z,57.47
2022-09-02T00:59:11.887Z,57.60
2022-09-02T00:59:47.433Z,57.57
2022-09-02T01:00:22.529Z,57.27
2022-09-02T01:00:57.794Z,57.27
2022-09-02T01:01:33.045Z,56.96
2022-09-02T01:02:08.337Z,57.17
2022-09-02T01:02:43.542Z,57.07
2022-09-02T01:03:18.716Z,57.20
2022-09-02T01:03:53.782Z,57.40
2022-09-02T01:04:28.889Z,57.27
2022-09-02T01:05:04.125Z,57.37
2022-09-02T01:05:43.627Z,57.60
2022-09-02T01:06:14.536Z,56.99
2022-09-02T01:06:49.986Z,57.37
2022-09-02T01:07:25.187Z,57.29
2022-09-02T01:08:00.405Z,57.37
2022-09-02T01:08:35.599Z,57.37
2022-09-02T01:09:10.720Z,57.29
2022-09-02T01:09:45.906Z,57.20
2022-09-02T01:10:21.328Z,57.29
2022-09-02T01:10:57.040Z,57.17
2022-09-02T01:11:32.375Z,57.07
2022-09-02T01:12:07.629Z,57.20
2022-09-02T01:12:43.159Z,57.17
2022-09-02T01:13:18.414Z,57.29
2022-09-02T01:13:53.482Z,57.37
2022-09-02T01:14:28.799Z,57.20
2022-09-02T01:15:04.070Z,57.29
2022-09-02T01:15:39.379Z,57.80
2022-09-02T01:16:14.948Z,57.20
2022-09-02T01:16:50.445Z,57.20
2022-09-02T01:17:25.722Z,57.90
2022-09-02T01:18:01.065Z,57.40
2022-09-02T01:18:36.423Z,57.20
2022-09-02T01:19:11.611Z,57.50
2022-09-02T01:19:46.801Z,57.29
2022-09-02T01:20:25.603Z,57.50
2022-09-02T01:20:57.230Z,57.50
2022-09-02T01:21:32.415Z,57.60
2022-09-02T01:22:07.942Z,57.40
2022-09-02T01:22:43.309Z,57.20
2022-09-02T01:23:18.576Z,57.60
2022-09-02T01:23:54.066Z,58.41
2022-09-02T01:24:29.483Z,57.40
2022-09-02T01:25:04.903Z,57.60
2022-09-02T01:25:40.105Z,56.99
2022-09-02T01:26:15.528Z,57.29
2022-09-02T01:26:51.082Z,57.29
2022-09-02T01:27:26.304Z,57.20
2022-09-02T01:28:01.436Z,57.90
2022-09-02T01:28:36.777Z,57.40
2022-09-02T01:29:12.192Z,57.40
2022-09-02T01:29:47.313Z,57.20
2022-09-02T01:30:22.517Z,57.60
2022-09-02T01:30:57.527Z,57.70
2022-09-02T01:31:32.755Z,57.40
2022-09-02T01:32:08.087Z,57.60
2022-09-02T01:32:43.587Z,57.40
2022-09-02T01:33:18.854Z,57.29
2022-09-02T01:33:53.818Z,57.20
2022-09-02T01:34:29.060Z,57.60
2022-09-02T01:35:04.363Z,57.29
2022-09-02T01:35:39.908Z,57.20
2022-09-02T01:36:14.922Z,56.99
2022-09-02T01:36:50.292Z,57.09
2022-09-02T01:37:25.416Z,56.99
2022-09-02T01:38:00.619Z,56.99
2022-09-02T01:38:35.861Z,56.89
2022-09-02T01:39:11.195Z,56.99
2022-09-02T01:39:46.638Z,57.37
2022-09-02T01:40:21.885Z,57.70
2022-09-02T01:40:57.305Z,57.70
2022-09-02T01:41:32.622Z,57.20
2022-09-02T01:42:07.768Z,57.60
2022-09-02T01:42:43.191Z,57.40
2022-09-02T01:43:18.447Z,57.60
2022-09-02T01:43:53.646Z,56.99
2022-09-02T01:44:28.664Z,57.40
2022-09-02T01:45:04.009Z,57.40
2022-09-02T01:45:39.637Z,57.60
2022-09-02T01:46:15.078Z,57.20
2022-09-02T01:46:50.733Z,57.20
2022-09-02T01:47:26.093Z,57.60
2022-09-02T01:48:01.222Z,57.60
2022-09-02T01:48:36.431Z,57.20
2022-09-02T01:49:11.461Z,57.40
2022-09-02T01:49:46.896Z,57.27
2022-09-02T01:50:22.086Z,57.70
2022-09-02T01:50:57.104Z,57.50
2022-09-02T01:51:32.319Z,57.40
2022-09-02T01:52:07.355Z,57.40
2022-09-02T01:52:42.653Z,57.20
2022-09-02T01:53:17.941Z,57.09
2022-09-02T01:53:53.040Z,56.99
2022-09-02T01:54:28.180Z,57.20
2022-09-02T01:55:03.873Z,57.40
2022-09-02T01:55:39.192Z,57.60
2022-09-02T01:56:14.511Z,57.20
2022-09-02T01:56:49.914Z,57.90
2022-09-02T01:57:25.332Z,57.70
2022-09-02T01:58:00.723Z,57.50
2022-09-02T01:58:36.246Z,57.50
2022-09-02T01:59:11.751Z,57.29
2022-09-02T01:59:47.372Z,57.50
2022-09-02T02:00:22.497Z,57.60
2022-09-02T02:00:57.583Z,57.20
2022-09-02T02:01:32.717Z,57.90
2022-09-02T02:02:08.332Z,57.90
2022-09-02T02:02:43.458Z,57.50
2022-09-02T02:03:18.405Z,57.47
2022-09-02T02:03:53.722Z,57.60
2022-09-02T02:04:29.055Z,57.40
2022-09-02T02:05:04.201Z,57.60
2022-09-02T02:05:39.311Z,57.57
2022-09-02T02:06:14.336Z,57.60
2022-09-02T02:06:52.497Z,58.00
2022-09-02T02:07:24.793Z,57.29
2022-09-02T02:07:59.985Z,57.50
2022-09-02T02:08:35.434Z,57.60
2022-09-02T02:09:10.863Z,57.60
2022-09-02T02:09:45.985Z,57.50
2022-09-02T02:10:21.279Z,57.47
2022-09-02T02:10:56.597Z,57.80
2022-09-02T02:11:31.995Z,57.60
2022-09-02T02:12:06.999Z,57.29
2022-09-02T02:12:42.170Z,57.70
2022-09-02T02:13:17.469Z,57.60
2022-09-02T02:13:53.183Z,57.50
2022-09-02T02:14:28.815Z,57.50
2022-09-02T02:15:04.033Z,57.60
2022-09-02T02:15:39.001Z,57.29
2022-09-02T02:16:14.003Z,57.70
2022-09-02T02:16:49.186Z,57.29
2022-09-02T02:17:24.703Z,57.29
2022-09-02T02:17:59.927Z,57.67
2022-09-02T02:18:35.127Z,57.40
2022-09-02T02:19:10.448Z,57.40
2022-09-02T02:19:45.582Z,57.47
2022-09-02T02:20:21.005Z,57.27
2022-09-02T02:20:56.523Z,57.29
2022-09-02T02:21:31.844Z,57.07
2022-09-02T02:22:07.047Z,57.87
2022-09-02T02:22:42.148Z,57.37
2022-09-02T02:23:17.481Z,58.07
2022-09-02T02:23:52.764Z,57.29
2022-09-02T02:24:27.999Z,57.90
2022-09-02T02:25:03.118Z,58.00
2022-09-02T02:25:38.142Z,58.00
2022-09-02T02:26:13.585Z,58.20
2022-09-02T02:26:48.995Z,58.20
2022-09-02T02:27:24.116Z,57.90
2022-09-02T02:27:59.322Z,58.11
2022-09-02T02:28:34.751Z,57.60
2022-09-02T02:29:10.073Z,58.31
2022-09-02T02:29:45.328Z,58.18
2022-09-02T02:30:20.838Z,58.00
2022-09-02T02:30:56.647Z,57.90
2022-09-02T02:31:31.889Z,57.90
2022-09-02T02:32:07.084Z,58.00
2022-09-02T02:32:42.300Z,57.80
2022-09-02T02:33:17.694Z,57.90
2022-09-02T02:33:52.854Z,57.87
2022-09-02T02:34:27.971Z,57.90
2022-09-02T02:35:03.274Z,57.80
2022-09-02T02:35:38.486Z,58.00
2022-09-02T02:36:13.630Z,57.60
2022-09-02T02:36:48.863Z,57.70
2022-09-02T02:37:25.659Z,57.70
2022-09-02T02:37:59.645Z,57.60
2022-09-02T02:38:34.841Z,57.80
2022-09-02T02:39:09.981Z,57.80
2022-09-02T02:39:45.193Z,57.60
2022-09-02T02:40:20.454Z,57.70
2022-09-02T02:40:55.430Z,57.60
2022-09-02T02:41:30.765Z,57.90
2022-09-02T02:42:06.200Z,57.90
2022-09-02T02:42:41.525Z,57.90
2022-09-02T02:43:17.023Z,58.51
2022-09-02T02:43:52.339Z,57.80
2022-09-02T02:44:27.378Z,57.90
2022-09-02T02:45:02.381Z,57.80
2022-09-02T02:45:37.547Z,57.70
2022-09-02T02:46:12.883Z,58.31
2022-09-02T02:46:48.217Z,58.51
2022-09-02T02:47:23.301Z,58.81
2022-09-02T02:47:58.414Z,58.71
2022-09-02T02:48:33.867Z,59.12
2022-09-02T02:49:09.102Z,58.92
2022-09-02T02:49:44.314Z,59.22
2022-09-02T02:50:19.420Z,58.92
2022-09-02T02:50:54.937Z,58.81
2022-09-02T02:51:30.087Z,58.71
2022-09-02T02:52:05.288Z,58.81
2022-09-02T02:52:40.552Z,59.12
2022-09-02T02:53:15.973Z,58.51
2022-09-02T02:53:53.022Z,58.20
2022-09-02T02:54:34.866Z,58.41
2022-09-02T02:55:01.534Z,59.12
2022-09-02T02:55:36.862Z,59.01
2022-09-02T02:56:12.170Z,59.12
2022-09-02T02:56:47.290Z,58.71
2022-09-02T02:57:22.886Z,59.01
2022-09-02T02:57:58.147Z,58.71
2022-09-02T02:58:33.250Z,58.71
2022-09-02T02:59:08.551Z,59.42
2022-09-02T02:59:43.762Z,58.81
2022-09-02T03:00:19.070Z,59.32
2022-09-02T03:00:54.193Z,59.22
2022-09-02T03:01:29.006Z,59.22
2022-09-02T03:02:04.243Z,59.01
2022-09-02T03:02:39.488Z,59.01
2022-09-02T03:03:15.004Z,59.12
2022-09-02T03:03:50.320Z,59.12
2022-09-02T03:04:25.725Z,59.25
2022-09-02T03:05:00.845Z,59.12
2022-09-02T03:05:36.134Z,59.22
2022-09-02T03:06:11.766Z,59.32
2022-09-02T03:06:46.973Z,59.22
2022-09-02T03:07:22.171Z,59.01
2022-09-02T03:07:57.375Z,59.14
2022-09-02T03:08:32.509Z,59.22
2022-09-02T03:09:07.649Z,59.01
2022-09-02T03:09:42.793Z,59.63
2022-09-02T03:10:18.232Z,59.22
2022-09-02T03:10:53.366Z,59.72
2022-09-02T03:11:28.422Z,59.42
2022-09-02T03:12:03.814Z,59.01
2022-09-02T03:12:38.939Z,59.32
2022-09-02T03:13:14.312Z,59.52
2022-09-02T03:13:49.802Z,59.32
2022-09-02T03:14:25.282Z,59.12
2022-09-02T03:15:00.622Z,59.42
2022-09-02T03:15:35.929Z,59.01
2022-09-02T03:16:11.202Z,59.63
2022-09-02T03:16:46.271Z,58.92
2022-09-02T03:17:21.590Z,58.94
2022-09-02T03:17:56.728Z,59.85
2022-09-02T03:18:31.821Z,58.92
2022-09-02T03:19:07.361Z,59.05
2022-09-02T03:19:42.371Z,59.12
2022-09-02T03:20:17.795Z,59.45
2022-09-02T03:20:52.893Z,59.42
2022-09-02T03:21:28.004Z,59.63
2022-09-02T03:22:03.243Z,59.12
2022-09-02T03:22:38.447Z,59.12
2022-09-02T03:23:13.917Z,59.95
2022-09-02T03:23:49.061Z,59.52
2022-09-02T03:24:24.188Z,59.34
2022-09-02T03:24:59.401Z,59.63
2022-09-02T03:25:36.068Z,59.65
2022-09-02T03:26:10.142Z,59.45
2022-09-02T03:26:45.253Z,59.95
2022-09-02T03:27:20.280Z,60.06
2022-09-02T03:27:55.524Z,60.13
2022-09-02T03:28:30.735Z,60.26
2022-09-02T03:29:05.844Z,60.06
2022-09-02T03:29:41.178Z,60.23
2022-09-02T03:30:16.701Z,60.46
2022-09-02T03:30:52.386Z,60.16
2022-09-02T03:31:27.796Z,59.85
2022-09-02T03:32:02.993Z,60.06
2022-09-02T03:32:38.095Z,60.26
2022-09-02T03:33:13.503Z,60.36
2022-09-02T03:33:48.913Z,60.26
2022-09-02T03:34:24.488Z,60.57
2022-09-02T03:34:59.710Z,60.57
2022-09-02T03:35:35.210Z,60.16
2022-09-02T03:36:10.614Z,59.85
2022-09-02T03:36:45.951Z,60.06
2022-09-02T03:37:21.139Z,59.85
2022-09-02T03:37:56.461Z,59.95
2022-09-02T03:38:31.672Z,60.26
2022-09-02T03:39:09.943Z,60.57
2022-09-02T03:39:42.138Z,60.26
2022-09-02T03:40:17.546Z,59.85
2022-09-02T03:40:53.146Z,60.46
2022-09-02T03:41:28.414Z,60.77
2022-09-02T03:42:03.539Z,60.46
2022-09-02T03:42:38.854Z,60.16
2022-09-02T03:43:14.351Z,59.65
2022-09-02T03:43:49.602Z,61.07
2022-09-02T03:44:24.723Z,60.77
2022-09-02T03:45:00.125Z,60.77
2022-09-02T03:45:35.393Z,60.77
2022-09-02T03:46:10.568Z,61.07
2022-09-02T03:46:45.946Z,61.17
2022-09-02T03:47:21.271Z,60.86
2022-09-02T03:47:56.682Z,60.77
2022-09-02T03:48:31.919Z,60.77
2022-09-02T03:49:07.162Z,60.66
2022-09-02T03:49:43.757Z,60.36
2022-09-02T03:50:18.240Z,60.36
2022-09-02T03:50:53.648Z,60.16
2022-09-02T03:51:28.565Z,60.86
2022-09-02T03:52:03.994Z,60.16
2022-09-02T03:52:39.311Z,61.10
2022-09-02T03:53:19.348Z,61.27
2022-09-02T03:53:49.830Z,61.40
2022-09-02T03:54:25.143Z,61.40
2022-09-02T03:55:00.354Z,61.20
2022-09-02T03:55:35.795Z,60.79
2022-09-02T03:56:11.185Z,60.79
2022-09-02T03:56:46.365Z,61.20
2022-09-02T03:57:21.475Z,61.10
2022-09-02T03:57:56.680Z,61.40
2022-09-02T03:58:32.012Z,62.11
2022-09-02T03:59:07.323Z,61.60
2022-09-02T03:59:42.542Z,61.71
2022-09-02T04:00:17.875Z,61.71
2022-09-02T04:00:53.506Z,61.51
2022-09-02T04:01:34.398Z,61.71
2022-09-02T04:02:04.309Z,61.71
2022-09-02T04:02:39.377Z,61.80
2022-09-02T04:03:14.423Z,61.91
2022-09-02T04:03:49.468Z,61.71
2022-09-02T04:04:25.082Z,61.40
2022-09-02T04:05:00.497Z,61.71
2022-09-02T04:05:35.837Z,61.51
2022-09-02T04:06:11.163Z,61.91
2022-09-02T04:06:46.460Z,61.94
2022-09-02T04:07:21.667Z,61.91
2022-09-02T04:07:56.870Z,61.80
2022-09-02T04:08:32.189Z,61.40
2022-09-02T04:09:07.619Z,62.11
2022-09-02T04:09:46.707Z,61.63
2022-09-02T04:10:19.471Z,61.51
2022-09-02T04:10:54.824Z,61.71
2022-09-02T04:11:30.042Z,62.34
2022-09-02T04:12:05.558Z,62.34
2022-09-02T04:12:40.675Z,61.83
2022-09-02T04:13:15.994Z,62.24
2022-09-02T04:13:51.304Z,61.94
2022-09-02T04:14:33.526Z,61.80
2022-09-02T04:15:09.391Z,61.94
2022-09-02T04:15:44.962Z,61.53
2022-09-02T04:16:20.293Z,61.74
2022-09-02T04:16:55.862Z,62.41
2022-09-02T04:17:31.125Z,62.04
2022-09-02T04:18:06.574Z,62.54
2022-09-02T04:18:41.903Z,61.43
2022-09-02T04:19:17.410Z,62.45
2022-09-02T04:19:52.739Z,62.65
2022-09-02T04:20:28.049Z,62.14
2022-09-02T04:21:03.774Z,62.45
2022-09-02T04:21:39.035Z,62.85
2022-09-02T04:22:14.246Z,62.95
2022-09-02T04:22:49.564Z,62.34
2022-09-02T04:23:24.568Z,62.54
2022-09-02T04:23:59.823Z,62.75
2022-09-02T04:24:35.057Z,62.65
2022-09-02T04:25:10.291Z,62.75
2022-09-02T04:25:45.499Z,62.65
2022-09-02T04:26:20.726Z,62.95
2022-09-02T04:26:58.493Z,63.35
2022-09-02T04:27:31.443Z,63.15
2022-09-02T04:28:07.200Z,63.35
2022-09-02T04:28:42.498Z,63.35
2022-09-02T04:29:17.639Z,63.15
2022-09-02T04:29:52.855Z,63.06
2022-09-02T04:30:28.286Z,63.35
2022-09-02T04:31:04.089Z,63.06
2022-09-02T04:31:39.397Z,63.46
2022-09-02T04:32:14.462Z,63.35
2022-09-02T04:32:49.684Z,63.39
2022-09-02T04:33:24.929Z,63.49
2022-09-02T04:34:00.319Z,63.59
2022-09-02T04:34:35.730Z,63.39
2022-09-02T04:35:10.856Z,63.46
2022-09-02T04:35:46.192Z,63.08
2022-09-02T04:36:21.522Z,63.39
2022-09-02T04:36:57.144Z,63.49
2022-09-02T04:37:32.594Z,62.88
2022-09-02T04:38:07.611Z,63.49
2022-09-02T04:38:43.018Z,64.00
2022-09-02T04:39:18.239Z,63.89
2022-09-02T04:39:53.608Z,63.18
2022-09-02T04:40:28.569Z,64.20
2022-09-02T04:41:03.859Z,63.89
2022-09-02T04:41:39.196Z,64.30
2022-09-02T04:42:14.519Z,63.79
2022-09-02T04:42:49.577Z,64.20
2022-09-02T04:43:24.796Z,63.72
2022-09-02T04:44:00.128Z,63.89
2022-09-02T04:44:35.572Z,63.39
2022-09-02T04:45:10.910Z,63.79
2022-09-02T04:45:46.237Z,64.00
2022-09-02T04:46:29.739Z,64.10
2022-09-02T04:46:56.511Z,63.18
2022-09-02T04:47:31.834Z,64.00
2022-09-02T04:48:06.983Z,64.10
2022-09-02T04:48:42.135Z,64.10
2022-09-02T04:49:17.645Z,64.20
2022-09-02T04:49:53.074Z,63.89
2022-09-02T04:50:28.377Z,64.30
2022-09-02T04:51:03.482Z,63.89
2022-09-02T04:51:38.900Z,64.43
2022-09-02T04:52:14.131Z,64.73
2022-09-02T04:52:49.660Z,64.73
2022-09-02T04:53:25.102Z,64.73
2022-09-02T04:54:00.531Z,64.03
2022-09-02T04:54:35.646Z,64.03
2022-09-02T04:55:10.868Z,64.73
2022-09-02T04:55:46.191Z,64.53
2022-09-02T04:56:21.108Z,64.64
2022-09-02T04:56:56.349Z,64.53
2022-09-02T04:57:31.645Z,63.92
2022-09-02T04:58:07.028Z,64.20
2022-09-02T04:58:42.393Z,64.33
2022-09-02T04:59:17.835Z,64.23
2022-09-02T04:59:53.152Z,64.13
2022-09-02T05:00:28.198Z,64.33
2022-09-02T05:01:03.622Z,64.23
2022-09-02T05:01:39.183Z,64.53
2022-09-02T05:02:14.732Z,64.53
2022-09-02T05:02:49.761Z,64.43
2022-09-02T05:03:25.112Z,64.43
2022-09-02T05:04:00.503Z,64.13
2022-09-02T05:04:35.586Z,64.73
2022-09-02T05:05:10.812Z,64.73
2022-09-02T05:05:46.015Z,64.43
2022-09-02T05:06:20.937Z,64.53
2022-09-02T05:06:56.162Z,64.53
2022-09-02T05:07:31.574Z,64.73
2022-09-02T05:08:06.690Z,65.14
2022-09-02T05:08:41.897Z,65.14
2022-09-02T05:09:17.262Z,65.14
2022-09-02T05:09:52.474Z,65.14
2022-09-02T05:10:27.992Z,65.45
2022-09-02T05:11:03.208Z,65.27
2022-09-02T05:11:38.320Z,65.45
2022-09-02T05:12:13.646Z,65.24
2022-09-02T05:12:48.960Z,65.68
2022-09-02T05:13:24.597Z,65.55
2022-09-02T05:13:59.930Z,66.08
2022-09-02T05:14:35.348Z,65.58
2022-09-02T05:15:10.997Z,65.37
2022-09-02T05:15:46.139Z,65.48
2022-09-02T05:16:21.575Z,65.24
2022-09-02T05:16:56.548Z,65.75
2022-09-02T05:17:31.894Z,65.85
2022-09-02T05:18:07.420Z,65.85
2022-09-02T05:18:42.766Z,66.16
2022-09-02T05:19:18.295Z,65.78
2022-09-02T05:19:53.853Z,65.75
2022-09-02T05:20:28.956Z,66.19
2022-09-02T05:21:04.200Z,66.05
2022-09-02T05:21:39.623Z,66.05
2022-09-02T05:22:14.844Z,65.65
2022-09-02T05:22:49.861Z,65.78
2022-09-02T05:23:25.278Z,65.75
2022-09-02T05:24:00.805Z,65.88
2022-09-02T05:24:36.027Z,65.88
2022-09-02T05:25:11.068Z,65.95
2022-09-02T05:25:46.594Z,65.95
2022-09-02T05:26:22.044Z,66.29
2022-09-02T05:26:57.158Z,65.95
2022-09-02T05:27:32.372Z,66.36
2022-09-02T05:28:07.665Z,66.36
2022-09-02T05:28:42.815Z,65.85
2022-09-02T05:29:18.045Z,66.26
2022-09-02T05:29:53.164Z,66.16
2022-09-02T05:30:28.691Z,66.26
2022-09-02T05:31:03.728Z,65.75
2022-09-02T05:31:39.191Z,66.16
2022-09-02T05:32:14.617Z,65.85
2022-09-02T05:32:49.953Z,66.05
2022-09-02T05:33:25.285Z,66.26
2022-09-02T05:34:00.390Z,65.75
2022-09-02T05:34:35.530Z,66.46
2022-09-02T05:35:10.657Z,65.85
2022-09-02T05:35:45.957Z,66.46
2022-09-02T05:36:21.103Z,66.26
2022-09-02T05:36:56.412Z,66.16
2022-09-02T05:37:31.964Z,66.46
2022-09-02T05:38:07.322Z,66.36
2022-09-02T05:38:42.856Z,66.36
2022-09-02T05:39:18.085Z,66.16
2022-09-02T05:39:53.628Z,65.95
2022-09-02T05:40:29.004Z,66.16
2022-09-02T05:41:04.211Z,65.65
2022-09-02T05:41:39.271Z,66.16
2022-09-02T05:42:14.575Z,65.85
2022-09-02T05:42:49.886Z,65.85
2022-09-02T05:43:25.115Z,65.75
2022-09-02T05:44:01.403Z,66.36
2022-09-02T05:44:35.547Z,65.85
2022-09-02T05:45:10.935Z,65.92
2022-09-02T05:45:46.133Z,66.05
2022-09-02T05:46:21.396Z,65.95
2022-09-02T05:46:56.687Z,65.82
2022-09-02T05:47:31.837Z,66.13
2022-09-02T05:48:06.845Z,66.33
2022-09-02T05:48:42.410Z,65.62
2022-09-02T05:49:18.012Z,66.02
2022-09-02T05:49:53.634Z,65.52
2022-09-02T05:50:31.787Z,66.43
2022-09-02T05:51:04.164Z,65.52
2022-09-02T05:51:39.402Z,65.52
2022-09-02T05:52:14.818Z,65.52
2022-09-02T05:52:50.252Z,65.89
2022-09-02T05:53:25.739Z,66.19
2022-09-02T05:54:00.859Z,66.19
2022-09-02T05:54:36.281Z,65.39
2022-09-02T05:55:11.405Z,65.59
2022-09-02T05:55:46.628Z,65.48
2022-09-02T05:56:22.247Z,65.08
2022-09-02T05:56:57.659Z,64.37
2022-09-02T05:57:32.947Z,64.58
2022-09-02T05:58:08.235Z,64.54
2022-09-02T05:58:43.553Z,64.44
2022-09-02T05:59:18.955Z,64.75
2022-09-02T05:59:54.174Z,64.64
2022-09-02T06:00:29.395Z,64.41
2022-09-02T06:01:04.925Z,64.04
2022-09-02T06:01:40.295Z,64.14
2022-09-02T06:02:15.653Z,64.31
2022-09-02T06:02:50.795Z,64.61
2022-09-02T06:03:26.056Z,64.41
2022-09-02T06:04:01.270Z,64.11
2022-09-02T06:04:36.592Z,63.70
2022-09-02T06:05:11.933Z,64.31
2022-09-02T06:05:47.243Z,63.90
2022-09-02T06:06:22.551Z,64.18
2022-09-02T06:06:57.779Z,62.86
2022-09-02T06:07:33.116Z,62.86
2022-09-02T06:08:08.623Z,62.86
2022-09-02T06:08:43.840Z,62.86
2022-09-02T06:09:19.132Z,62.96
2022-09-02T06:09:54.370Z,63.13
2022-09-02T06:10:29.715Z,63.44
2022-09-02T06:11:05.024Z,63.13
2022-09-02T06:11:40.712Z,63.44
2022-09-02T06:12:16.410Z,62.63
2022-09-02T06:12:51.633Z,63.10
2022-09-02T06:13:27.085Z,62.43
2022-09-02T06:14:02.734Z,62.30
2022-09-02T06:14:38.571Z,62.40
2022-09-02T06:15:14.770Z,62.40
2022-09-02T06:15:50.027Z,62.60
2022-09-02T06:16:25.321Z,61.49
2022-09-02T06:17:00.701Z,61.87
2022-09-02T06:17:36.023Z,61.79
2022-09-02T06:18:11.853Z,62.07
2022-09-02T06:18:47.403Z,61.25
2022-09-02T06:19:22.873Z,61.36
2022-09-02T06:19:58.087Z,61.96
2022-09-02T06:20:33.429Z,61.76
2022-09-02T06:21:08.751Z,61.73
2022-09-02T06:21:44.283Z,60.93
2022-09-02T06:22:19.497Z,61.73
2022-09-02T06:22:54.511Z,61.73
2022-09-02T06:23:29.639Z,61.23
2022-09-02T06:24:04.774Z,61.00
2022-09-02T06:24:39.973Z,61.51
2022-09-02T06:25:15.112Z,61.00
2022-09-02T06:25:50.452Z,60.80
2022-09-02T06:26:25.917Z,60.57
2022-09-02T06:27:01.142Z,60.39
2022-09-02T06:27:36.376Z,60.39
2022-09-02T06:28:11.682Z,60.49
2022-09-02T06:28:47.241Z,60.16
2022-09-02T06:29:22.548Z,60.57
2022-09-02T06:29:57.952Z,60.06
2022-09-02T06:30:33.216Z,59.96
2022-09-02T06:31:08.625Z,60.26
2022-09-02T06:31:43.982Z,59.53
2022-09-02T06:32:19.396Z,59.93
2022-09-02T06:32:54.622Z,59.63
2022-09-02T06:33:29.836Z,60.03
2022-09-02T06:34:05.354Z,59.22
2022-09-02T06:34:40.773Z,59.33
2022-09-02T06:35:16.270Z,59.33
2022-09-02T06:35:51.793Z,59.50
2022-09-02T06:36:28.225Z,58.92
2022-09-02T06:37:02.008Z,58.89
2022-09-02T06:37:37.295Z,59.09
2022-09-02T06:38:12.521Z,59.00
2022-09-02T06:38:47.535Z,59.30
2022-09-02T06:39:22.424Z,58.47
2022-09-02T06:39:57.927Z,58.97
2022-09-02T06:40:33.232Z,58.97
2022-09-02T06:41:08.477Z,59.17
2022-09-02T06:41:43.613Z,58.67
2022-09-02T06:42:18.916Z,58.26
2022-09-02T06:42:54.142Z,58.97
2022-09-02T06:43:29.133Z,58.54
2022-09-02T06:44:07.046Z,57.83
2022-09-02T06:44:40.076Z,57.53
2022-09-02T06:45:16.361Z,58.64
2022-09-02T06:45:52.107Z,57.53
2022-09-02T06:46:27.287Z,57.43
2022-09-02T06:47:02.566Z,57.93
2022-09-02T06:47:38.164Z,57.40
2022-09-02T06:48:13.699Z,57.60
2022-09-02T06:48:49.003Z,58.01
2022-09-02T06:49:24.565Z,57.60
2022-09-02T06:50:00.218Z,57.10
2022-09-02T06:50:35.413Z,57.07
2022-09-02T06:51:10.731Z,56.16
2022-09-02T06:51:45.737Z,56.97
2022-09-02T06:52:20.849Z,56.27
2022-09-02T06:52:56.154Z,56.87
2022-09-02T06:53:31.679Z,56.77
2022-09-02T06:54:07.082Z,56.97
2022-09-02T06:54:42.627Z,55.66
2022-09-02T06:55:18.073Z,56.97
2022-09-02T06:55:53.564Z,55.66
2022-09-02T06:56:28.668Z,56.04
2022-09-02T06:57:04.179Z,54.93
2022-09-02T06:57:39.310Z,56.04
2022-09-02T06:58:14.629Z,55.23
2022-09-02T06:58:49.838Z,54.93
2022-09-02T06:59:24.948Z,55.33
2022-09-02T07:00:02.405Z,55.00
2022-09-02T07:00:36.243Z,54.91
2022-09-02T07:01:11.744Z,56.01
2022-09-02T07:01:46.939Z,55.11
2022-09-02T07:02:21.957Z,54.78
2022-09-02T07:02:57.271Z,54.65
2022-09-02T07:03:32.703Z,54.35
2022-09-02T07:04:07.901Z,54.65
2022-09-02T07:04:43.153Z,54.02
2022-09-02T07:05:18.390Z,54.13
2022-09-02T07:05:53.690Z,54.10
2022-09-02T07:06:28.913Z,54.40
2022-09-02T07:07:04.102Z,53.20
2022-09-02T07:07:39.115Z,52.26
2022-09-02T07:08:14.217Z,54.47
2022-09-02T07:08:49.436Z,52.77
2022-09-02T07:09:24.754Z,52.77
2022-09-02T07:10:00.314Z,52.87
2022-09-02T07:10:35.728Z,52.97
2022-09-02T07:11:11.043Z,52.44
2022-09-02T07:11:46.077Z,52.01
2022-09-02T07:12:21.477Z,52.44
2022-09-02T07:12:56.693Z,52.22
2022-09-02T07:13:31.896Z,52.72
2022-09-02T07:14:07.318Z,52.12
2022-09-02T07:14:42.560Z,52.52
2022-09-02T07:15:17.750Z,50.69
2022-09-02T07:15:53.000Z,51.69
2022-09-02T07:16:28.258Z,51.17
2022-09-02T07:17:03.646Z,50.46
2022-09-02T07:17:39.142Z,51.07
2022-09-02T07:18:14.344Z,50.16
2022-09-02T07:18:49.565Z,50.26
2022-09-02T07:19:24.965Z,51.27
2022-09-02T07:20:00.434Z,49.96
2022-09-02T07:20:35.805Z,51.07
2022-09-02T07:21:11.300Z,50.14
2022-09-02T07:21:46.812Z,50.24
2022-09-02T07:22:22.023Z,50.54
2022-09-02T07:22:57.348Z,51.02
2022-09-02T07:23:32.762Z,50.62
2022-09-02T07:24:08.179Z,49.52
2022-09-02T07:24:43.411Z,49.40
2022-09-02T07:25:19.150Z,48.29
2022-09-02T07:25:54.662Z,48.90
2022-09-02T07:26:29.975Z,47.99
2022-09-02T07:27:05.182Z,49.09
2022-09-02T07:27:40.505Z,48.60
2022-09-02T07:28:15.482Z,48.29
2022-09-02T07:28:50.808Z,47.89
2022-09-02T07:29:25.906Z,48.52
2022-09-02T07:30:01.247Z,48.82
2022-09-02T07:30:36.747Z,48.82
2022-09-02T07:31:12.156Z,49.09
2022-09-02T07:31:47.425Z,48.90
2022-09-02T07:32:22.898Z,48.79
2022-09-02T07:32:58.198Z,49.07
2022-09-02T07:33:33.813Z,47.97
2022-09-02T07:34:09.246Z,47.45
2022-09-02T07:34:44.774Z,47.65